Time;durP1;ratioP1;P1;durP2;ratioP2;P2;SDS_P1;SDS_P2;PMS_P1;PMS_P2;Temp;Humidity;BMP_temperature;BMP_pressure;BME280_temperature;BME280_humidity;BME280_pressure;Samples;Min_cycle;Max_cycle;Signal;HPM_P1;HPM_P2
2023/06/23 00:02:17;;;;;;;7.00;6.40;;;;;;;22.69;74.64;100252.16;109704;1272;138369;-67
2023/06/23 00:04:45;;;;;;;10.50;9.60;;;;;;;22.69;74.74;100246.08;109896;1272;139709;-68
2023/06/23 00:07:12;;;;;;;7.90;7.30;;;;;;;22.71;74.86;100247.32;109968;1272;22978;-67
2023/06/23 00:09:39;;;;;;;8.90;8.10;;;;;;;22.72;74.77;100249.77;109926;1273;140150;-69
2023/06/23 00:12:07;;;;;;;10.90;7.30;;;;;;;22.75;74.58;100249.11;109890;1273;138706;-68
2023/06/23 00:14:35;;;;;;;8.90;7.90;;;;;;;22.77;74.27;100245.04;109959;1272;22197;-68
2023/06/23 00:17:02;;;;;;;7.10;6.40;;;;;;;22.71;73.76;100228.85;109871;1272;137477;-68
2023/06/23 00:19:31;;;;;;;8.20;6.90;;;;;;;22.77;73.74;100239.88;110087;1272;22197;-67
2023/06/23 00:21:59;;;;;;;12.30;8.60;;;;;;;22.77;73.53;100240.80;109872;1272;138853;-68
2023/06/23 00:24:27;;;;;;;9.20;8.50;;;;;;;22.78;73.52;100243.58;109865;1272;142108;-67
2023/06/23 00:26:54;;;;;;;7.80;7.00;;;;;;;22.81;73.54;100240.70;109994;1262;22634;-68
2023/06/23 00:29:21;;;;;;;8.00;7.40;;;;;;;22.86;72.96;100240.36;109890;1276;138090;-68
2023/06/23 00:31:49;;;;;;;8.40;7.60;;;;;;;22.86;72.89;100240.35;109909;1274;23063;-67
2023/06/23 00:34:18;;;;;;;7.20;6.60;;;;;;;22.87;72.66;100235.73;109913;1272;138703;-69
2023/06/23 00:36:45;;;;;;;8.50;7.70;;;;;;;22.88;72.63;100237.17;109838;1273;138145;-67
2023/06/23 00:39:13;;;;;;;7.30;6.60;;;;;;;22.85;72.68;100240.85;109900;1275;22215;-68
2023/06/23 00:41:41;;;;;;;6.80;6.20;;;;;;;22.82;72.68;100243.52;109742;1276;139129;-69
2023/06/23 00:44:09;;;;;;;7.50;6.90;;;;;;;22.81;72.66;100241.50;109764;1272;139208;-68
2023/06/23 00:46:37;;;;;;;8.30;7.40;;;;;;;22.86;72.62;100241.23;110017;1272;22306;-68
2023/06/23 00:49:05;;;;;;;7.50;6.80;;;;;;;22.85;72.75;100239.38;109865;1272;139174;-68
2023/06/23 00:51:32;;;;;;;8.70;7.20;;;;;;;22.83;72.71;100236.55;109851;1275;22188;-68
2023/06/23 00:53:59;;;;;;;7.80;7.20;;;;;;;22.82;72.70;100234.44;109852;1273;137817;-69
2023/06/23 00:56:27;;;;;;;7.10;6.40;;;;;;;22.73;72.84;100224.17;109919;1271;138313;-67
2023/06/23 00:58:55;;;;;;;7.90;7.30;;;;;;;22.77;72.82;100233.03;110013;1272;22215;-68
2023/06/23 01:01:23;;;;;;;8.00;7.40;;;;;;;22.76;73.12;100232.27;109859;1272;138810;-69
2023/06/23 01:03:50;;;;;;;8.20;7.60;;;;;;;22.75;73.35;100231.63;110075;1272;22182;-68
2023/06/23 01:06:37;;;;;;;7.40;6.70;;;;;;;22.71;73.23;100232.11;109894;1272;138352;-67
2023/06/23 01:09:37;;;;;;;7.10;6.60;;;;;;;22.68;73.45;100235.48;109914;1273;139185;-67
2023/06/23 01:12:26;;;;;;;7.70;7.10;;;;;;;22.67;73.78;100232.71;109968;1262;138343;-69
2023/06/23 01:15:00;;;;;;;8.80;7.60;;;;;;;22.65;74.08;100228.52;110017;1274;22823;-67
2023/06/23 01:17:45;;;;;;;7.70;7.10;;;;;;;22.64;74.53;100226.52;109965;1272;139609;-66
2023/06/23 01:20:21;;;;;;;7.40;6.90;;;;;;;22.63;74.25;100227.70;109911;1272;138192;-66
2023/06/23 01:23:14;;;;;;;8.30;7.70;;;;;;;22.60;74.21;100227.42;109963;1275;22075;-67
2023/06/23 01:25:50;;;;;;;7.70;7.10;;;;;;;22.57;74.40;100232.32;109916;1272;139593;-68
2023/06/23 01:28:17;;;;;;;7.80;7.20;;;;;;;22.53;74.71;100231.89;109947;1275;138003;-67
2023/06/23 01:30:53;;;;;;;8.50;7.80;;;;;;;22.53;75.17;100236.60;110066;1272;22209;-66
2023/06/23 01:33:26;;;;;;;8.20;7.40;;;;;;;22.55;75.13;100237.11;109920;1274;138350;-67
2023/06/23 01:36:09;;;;;;;8.40;7.70;;;;;;;22.58;75.06;100235.64;110028;1272;22283;-68
2023/06/23 01:38:40;;;;;;;7.10;6.60;;;;;;;22.58;75.06;100240.96;109987;1273;22322;-67
2023/06/23 01:41:12;;;;;;;6.40;5.80;;;;;;;22.60;74.97;100242.98;109923;1275;139636;-68
2023/06/23 01:43:44;;;;;;;7.00;6.60;;;;;;;22.57;75.33;100247.48;109990;1273;22235;-69
2023/06/23 01:46:16;;;;;;;6.70;6.20;;;;;;;22.53;75.56;100249.22;109916;1262;138734;-68
2023/06/23 01:48:47;;;;;;;7.30;6.80;;;;;;;22.50;75.58;100249.48;109934;1275;137877;-68
2023/06/23 01:51:17;;;;;;;8.90;7.10;;;;;;;22.46;76.35;100254.04;110048;1272;22271;-67
2023/06/23 01:53:48;;;;;;;8.20;7.40;;;;;;;22.48;76.95;100250.67;109714;1272;137829;-71
2023/06/23 01:56:17;;;;;;;7.60;7.10;;;;;;;22.50;77.23;100249.81;109912;1272;138161;-68
2023/06/23 01:58:46;;;;;;;6.10;5.80;;;;;;;22.52;77.44;100246.95;110034;1279;22221;-66
2023/06/23 02:01:15;;;;;;;7.40;6.70;;;;;;;22.51;77.70;100245.08;109721;1263;138647;-67
2023/06/23 02:03:44;;;;;;;7.30;6.80;;;;;;;22.55;77.35;100248.68;110017;1275;23103;-68
2023/06/23 02:06:14;;;;;;;8.20;7.50;;;;;;;22.57;76.96;100252.38;109862;1272;137807;-68
2023/06/23 02:08:42;;;;;;;7.00;6.50;;;;;;;22.55;76.58;100243.35;109851;1273;138260;-67
2023/06/23 02:11:10;;;;;;;7.40;6.80;;;;;;;22.58;76.42;100250.42;109987;1275;22421;-67
2023/06/23 02:13:40;;;;;;;7.20;6.70;;;;;;;22.59;76.24;100248.36;109811;1258;140494;-68
2023/06/23 02:16:10;;;;;;;7.50;7.00;;;;;;;22.60;75.92;100253.19;109863;1272;138193;-68
2023/06/23 02:18:40;;;;;;;8.20;7.50;;;;;;;22.62;76.02;100251.30;109996;1272;23053;-68
2023/06/23 02:21:09;;;;;;;7.50;7.00;;;;;;;22.63;76.15;100255.90;109882;1277;139121;-68
2023/06/23 02:23:38;;;;;;;7.80;7.10;;;;;;;22.67;76.01;100253.02;109958;1274;22232;-69
2023/06/23 02:26:07;;;;;;;7.90;7.20;;;;;;;22.72;75.79;100252.77;110049;1272;139656;-68
2023/06/23 02:28:35;;;;;;;7.90;6.70;;;;;;;22.77;75.53;100253.63;110008;1272;139008;-68
2023/06/23 02:31:04;;;;;;;7.80;6.70;;;;;;;22.79;75.21;100255.30;110122;1272;22359;-68
2023/06/23 02:33:31;;;;;;;7.80;7.20;;;;;;;22.82;75.05;100254.23;109938;1273;139806;-68
2023/06/23 02:36:00;;;;;;;7.60;6.80;;;;;;;22.82;75.17;100254.39;110013;1272;22208;-68
2023/06/23 02:38:30;;;;;;;7.30;6.70;;;;;;;22.80;75.24;100254.56;109942;1273;22136;-68
2023/06/23 02:40:59;;;;;;;10.00;9.00;;;;;;;22.79;75.30;100255.80;109840;1272;137937;-68
2023/06/23 02:43:32;;;;;;;14.20;8.20;;;;;;;22.80;75.17;100255.69;110042;1272;22294;-70
2023/06/23 02:46:05;;;;;;;8.30;7.60;;;;;;;22.82;75.02;100254.66;110059;1271;137884;-68
2023/06/23 02:48:37;;;;;;;8.30;7.70;;;;;;;22.78;74.91;100240.69;109942;1272;139437;-68
2023/06/23 02:51:08;;;;;;;9.60;7.50;;;;;;;22.92;74.46;100251.33;110017;1272;22293;-68
2023/06/23 02:53:44;;;;;;;8.20;7.20;;;;;;;22.99;74.28;100243.73;109985;1272;137699;-68
2023/06/23 02:56:19;;;;;;;10.00;7.40;;;;;;;23.13;73.67;100242.97;109850;1272;139774;-68
2023/06/23 02:58:49;;;;;;;8.40;7.40;;;;;;;23.26;73.10;100248.99;109992;1275;22307;-68
2023/06/23 03:01:17;;;;;;;10.90;9.80;;;;;;;23.30;72.94;100250.89;109935;1273;137569;-68
2023/06/23 03:03:45;;;;;;;13.30;9.90;;;;;;;23.35;72.83;100251.80;110016;1273;22431;-67
2023/06/23 03:06:20;;;;;;;10.20;9.30;;;;;;;23.44;72.66;100251.62;109905;1275;138923;-69
2023/06/23 03:08:49;;;;;;;9.80;9.10;;;;;;;23.53;72.12;100247.23;109986;1272;138480;-69
2023/06/23 03:11:18;;;;;;;15.20;14.00;;;;;;;23.58;71.78;100237.00;109923;1272;22323;-68
2023/06/23 03:13:46;;;;;;;15.30;13.90;;;;;;;23.63;71.53;100234.80;109820;1272;139344;-68
2023/06/23 03:16:22;;;;;;;11.60;10.30;;;;;;;23.72;70.90;100238.36;109850;1262;139298;-69
2023/06/23 03:18:55;;;;;;;9.10;8.20;;;;;;;23.85;70.68;100236.33;110043;1274;22330;-68
2023/06/23 03:21:24;;;;;;;17.20;11.70;;;;;;;24.02;70.39;100236.71;109829;1272;137750;-69
2023/06/23 03:23:56;;;;;;;10.20;8.30;;;;;;;24.42;69.87;100232.84;109973;1273;22121;-70
2023/06/23 03:26:25;;;;;;;10.40;9.60;;;;;;;24.89;68.52;100233.45;109833;1271;139165;-69
2023/06/23 03:28:58;;;;;;;9.30;8.50;;;;;;;25.36;66.69;100231.04;109977;1262;137890;-69
2023/06/23 03:31:27;;;;;;;8.30;7.70;;;;;;;25.87;63.16;100226.45;110016;1273;22163;-69
2023/06/23 03:33:57;;;;;;;6.60;6.20;;;;;;;26.27;60.09;100219.54;109937;1273;137687;-68
2023/06/23 03:36:26;;;;;;;8.80;8.00;;;;;;;26.53;59.13;100213.66;109991;1272;138989;-68
2023/06/23 03:39:01;;;;;;;8.50;7.90;;;;;;;26.89;58.22;100211.06;109985;1275;23088;-69
2023/06/23 03:41:30;;;;;;;7.90;7.40;;;;;;;27.41;56.69;100211.30;109972;1271;137528;-69
2023/06/23 03:44:19;;;;;;;9.20;8.40;;;;;;;27.93;54.69;100210.59;109964;1264;22797;-69
2023/06/23 03:46:48;;;;;;;8.50;7.70;;;;;;;28.36;52.78;100209.77;110074;1272;23127;-68
2023/06/23 03:49:18;;;;;;;7.30;6.70;;;;;;;28.75;51.80;100204.13;109917;1272;139043;-69
2023/06/23 03:51:49;;;;;;;7.90;7.10;;;;;;;29.08;50.06;100206.95;109993;1273;22113;-68
2023/06/23 03:54:19;;;;;;;6.70;6.10;;;;;;;29.19;49.40;100207.84;109945;1273;137643;-69
2023/06/23 03:56:48;;;;;;;6.80;6.40;;;;;;;29.16;48.94;100206.21;109968;1266;138306;-68
2023/06/23 03:59:17;;;;;;;8.40;7.60;;;;;;;29.12;49.00;100204.91;110017;1275;22306;-68
2023/06/23 04:01:47;;;;;;;7.60;7.00;;;;;;;29.21;48.98;100206.15;109733;1272;139420;-69
2023/06/23 04:04:17;;;;;;;6.90;6.40;;;;;;;29.51;48.40;100205.65;109823;1274;138603;-76
2023/06/23 04:06:47;;;;;;;6.50;6.10;;;;;;;29.80;47.39;100204.38;110020;1272;22427;-77
2023/06/23 04:09:18;;;;;;;6.60;6.10;;;;;;;30.03;46.60;100200.71;109867;1264;139161;-79
2023/06/23 04:11:48;;;;;;;6.90;6.30;;;;;;;30.28;46.15;100199.96;109917;1272;22338;-76
2023/06/23 04:14:18;;;;;;;6.70;6.20;;;;;;;30.56;45.53;100199.95;109951;1272;136726;-77
2023/06/23 04:16:48;;;;;;;10.30;5.80;;;;;;;30.84;44.73;100196.20;109764;1274;139074;-79
2023/06/23 04:19:18;;;;;;;6.70;6.20;;;;;;;31.12;44.02;100196.52;110074;1272;22326;-78
2023/06/23 04:21:47;;;;;;;7.60;5.60;;;;;;;31.42;43.29;100202.14;109952;1271;138564;-76
2023/06/23 04:24:17;;;;;;;7.10;6.40;;;;;;;31.52;42.82;100202.39;110055;1271;138646;-79
2023/06/23 04:26:47;;;;;;;8.10;6.60;;;;;;;31.64;42.79;100195.70;109990;1272;22892;-75
2023/06/23 04:29:18;;;;;;;7.60;6.70;;;;;;;31.88;42.64;100198.36;109895;1273;138544;-78
2023/06/23 04:31:49;;;;;;;6.60;6.00;;;;;;;32.19;41.58;100201.81;109910;1265;23147;-72
2023/06/23 04:34:17;;;;;;;5.90;5.40;;;;;;;32.43;40.79;100206.95;109907;1272;138024;-74
2023/06/23 04:36:49;;;;;;;5.90;5.40;;;;;;;32.57;41.06;100207.80;110006;1272;137786;-79
2023/06/23 04:39:27;;;;;;;6.20;5.80;;;;;;;32.73;40.35;100208.83;110145;1272;22443;-79
2023/06/23 04:42:00;;;;;;;6.40;6.00;;;;;;;32.77;40.13;100209.20;109888;1272;136564;-73
2023/06/23 04:44:30;;;;;;;6.80;6.20;;;;;;;32.81;39.87;100206.72;109970;1272;140515;-78
2023/06/23 04:47:03;;;;;;;6.40;5.60;;;;;;;32.81;39.86;100205.62;109901;1272;22351;-78
2023/06/23 04:49:33;;;;;;;5.90;5.50;;;;;;;32.80;40.22;100208.04;109872;1272;139439;-75
2023/06/23 04:52:05;;;;;;;5.80;5.60;;;;;;;32.81;39.92;100204.29;109926;1272;23047;-80
2023/06/23 04:54:41;;;;;;;6.90;6.40;;;;;;;32.74;39.59;100199.48;110038;1262;22669;-76
2023/06/23 04:57:15;;;;;;;7.80;7.30;;;;;;;32.65;39.71;100200.98;109873;1272;138558;-78
2023/06/23 04:59:47;;;;;;;8.50;7.90;;;;;;;32.60;39.58;100193.38;109974;1272;22366;-79
2023/06/23 05:04:38;;;;;;;;;;;;;;;32.51;40.21;100191.08;104557;1298;544798;-76
2023/06/23 05:07:07;;;;;;;8.50;7.60;;;;;;;32.46;40.38;100191.77;105979;1286;24251;-79
2023/06/23 05:09:38;;;;;;;9.20;8.60;;;;;;;32.43;40.31;100192.84;105678;1272;137318;-77
2023/06/23 05:12:09;;;;;;;10.40;9.70;;;;;;;32.41;40.16;100192.86;105617;1273;137518;-76
2023/06/23 05:14:40;;;;;;;11.60;10.80;;;;;;;32.36;40.17;100192.13;105896;1285;22886;-77
2023/06/23 05:17:11;;;;;;;13.70;12.60;;;;;;;32.37;39.97;100192.66;105373;1286;281285;-77
2023/06/23 05:19:43;;;;;;;11.60;10.80;;;;;;;32.50;40.01;100191.84;105769;1274;22621;-75
2023/06/23 10:30:50;;;;;;;4.40;4.10;;;;;;;31.71;37.24;100030.04;87135;1305;545151;-81
2023/06/23 10:32:55;;;;;;;5.40;5.00;;;;;;;31.59;37.20;100032.21;87668;1283;161808;-82
2023/06/23 10:36:21;;;;;;;4.70;4.30;;;;;;;31.50;37.83;100025.56;86026;1307;545223;-77
2023/06/23 10:38:26;;;;;;;5.60;5.10;;;;;;;31.45;38.46;100023.90;88270;1283;25534;-79
2023/06/23 10:40:29;;;;;;;5.10;4.40;;;;;;;31.52;38.15;100027.95;88707;1282;136682;-77
2023/06/23 10:42:34;;;;;;;5.00;4.70;;;;;;;31.56;37.86;100027.47;89287;1273;22625;-80
2023/06/23 17:21:45;;;;;;;4.80;4.40;;;;;;;29.33;43.38;99941.98;85664;1304;545490;-70
2023/06/23 17:23:47;;;;;;;7.90;5.20;;;;;;;29.33;43.43;99937.11;87485;1266;22584;-69
2023/06/23 17:25:48;;;;;;;5.20;4.70;;;;;;;29.31;43.43;99933.02;90741;1277;137640;-70
2023/06/23 17:27:51;;;;;;;4.70;4.40;;;;;;;29.27;43.49;99937.48;90947;1275;22277;-71
2023/06/23 17:29:54;;;;;;;4.20;4.10;;;;;;;29.22;43.44;99942.41;90841;1275;137764;-70
2023/06/23 17:31:56;;;;;;;5.30;4.90;;;;;;;29.16;43.33;99941.70;90907;1275;22127;-72
2023/06/23 17:34:00;;;;;;;5.70;5.10;;;;;;;29.13;43.41;99945.20;90828;1275;136747;-69
2023/06/23 17:36:04;;;;;;;4.60;4.40;;;;;;;29.12;43.26;99951.34;90750;1275;175569;-70
2023/06/23 17:38:07;;;;;;;5.60;4.90;;;;;;;29.05;43.14;99941.73;91007;1273;22379;-70
2023/06/23 17:40:09;;;;;;;5.30;4.80;;;;;;;29.10;43.15;99947.73;90892;1273;137762;-72
2023/06/23 17:42:11;;;;;;;5.20;4.80;;;;;;;29.09;43.07;99946.58;91034;1275;22433;-69
2023/06/23 17:44:13;;;;;;;4.80;4.50;;;;;;;29.06;43.07;99948.19;90857;1273;137951;-69
2023/06/23 17:46:14;;;;;;;4.90;4.50;;;;;;;29.00;43.13;99949.40;90945;1275;22353;-71
2023/06/23 17:48:16;;;;;;;6.00;4.60;;;;;;;28.93;43.31;99942.51;90965;1272;137148;-70
2023/06/23 17:50:18;;;;;;;4.10;3.80;;;;;;;28.86;43.27;99943.42;91015;1273;22100;-71
2023/06/23 17:52:22;;;;;;;;;;;;;;;28.82;43.05;99936.41;90821;1275;137883;-72
2023/06/23 17:54:30;;;;;;;4.80;4.50;;;;;;;28.77;43.03;99933.66;90981;1273;23006;-70
2023/06/23 17:56:32;;;;;;;6.70;6.20;;;;;;;28.67;43.35;99931.00;90906;1274;138254;-70
2023/06/23 17:58:34;;;;;;;8.10;7.60;;;;;;;28.61;43.42;99930.31;91000;1272;23019;-71
2023/06/23 18:00:36;;;;;;;5.60;5.10;;;;;;;28.56;43.68;99928.85;90783;1275;138003;-70
2023/06/23 18:02:38;;;;;;;4.50;4.30;;;;;;;28.52;43.38;99927.52;91005;1272;22488;-73
2023/06/23 18:04:40;;;;;;;5.70;5.00;;;;;;;28.49;43.29;99922.87;90900;1273;138017;-70
2023/06/23 18:06:42;;;;;;;4.60;4.30;;;;;;;28.47;43.30;99923.32;91031;1275;22429;-70
2023/06/23 18:08:44;;;;;;;4.40;4.00;;;;;;;28.41;43.36;99921.56;90886;1273;137906;-71
2023/06/23 18:10:46;;;;;;;5.30;4.60;;;;;;;28.27;43.67;99915.64;91012;1270;22368;-71
2023/06/23 18:12:51;;;;;;;5.70;4.50;;;;;;;28.22;43.92;99905.56;90831;1273;138605;-71
2023/06/23 18:14:53;;;;;;;4.80;4.50;;;;;;;28.12;43.81;99888.25;90862;1277;22264;-71
2023/06/23 18:16:54;;;;;;;4.50;4.20;;;;;;;28.25;43.53;99892.11;90953;1273;138614;-71
2023/06/23 18:18:56;;;;;;;4.90;4.60;;;;;;;28.28;43.16;99889.98;90993;1272;22926;-71
2023/06/23 18:20:58;;;;;;;5.70;5.20;;;;;;;28.27;42.86;99884.09;90942;1272;137478;-70
2023/06/23 18:23:01;;;;;;;5.80;5.50;;;;;;;28.25;42.92;99883.77;91007;1273;22447;-72
2023/06/23 18:25:03;;;;;;;5.00;4.60;;;;;;;28.23;43.24;99886.91;90957;1272;137676;-70
2023/06/23 18:27:05;;;;;;;6.80;4.80;;;;;;;28.07;43.62;99889.66;90930;1275;22308;-69
2023/06/23 18:29:09;;;;;;;4.30;4.10;;;;;;;27.97;44.06;99891.13;90900;1273;137256;-70
2023/06/23 18:31:12;;;;;;;5.20;4.70;;;;;;;27.91;44.30;99897.52;90929;1275;22302;-73
2023/06/23 18:33:14;;;;;;;4.40;4.20;;;;;;;27.84;44.49;99895.17;90768;1276;138405;-72
2023/06/23 18:35:17;;;;;;;4.50;4.10;;;;;;;27.81;44.58;99894.05;91067;1272;22340;-72
2023/06/23 18:37:19;;;;;;;5.00;4.00;;;;;;;27.61;45.05;99890.99;90970;1272;137971;-70
2023/06/23 18:39:20;;;;;;;5.00;4.60;;;;;;;27.40;45.35;99876.52;90692;1264;22995;-71
2023/06/23 18:41:24;;;;;;;5.30;4.90;;;;;;;27.28;45.61;99877.77;90796;1272;136925;-74
2023/06/23 18:43:27;;;;;;;5.40;5.10;;;;;;;27.21;45.83;99884.52;91014;1268;22159;-71
2023/06/23 18:45:29;;;;;;;12.70;10.90;;;;;;;27.09;46.08;99886.13;91186;1269;138837;-73
2023/06/23 18:47:30;;;;;;;8.60;8.00;;;;;;;26.93;46.83;99882.08;91000;1272;22109;-71
2023/06/23 18:49:32;;;;;;;15.00;14.00;;;;;;;26.89;47.27;99900.80;90970;1272;138544;-71
2023/06/23 18:51:35;;;;;;;11.10;10.30;;;;;;;26.90;47.91;99903.67;91146;1272;22383;-70
2023/06/23 18:53:40;;;;;;;12.80;11.80;;;;;;;26.88;48.45;99901.59;90999;1268;138713;-71
2023/06/23 18:55:43;;;;;;;9.30;6.20;;;;;;;26.76;48.97;99900.38;91117;1272;22623;-71
2023/06/23 18:57:45;;;;;;;8.10;7.40;;;;;;;26.68;48.83;99903.55;90907;1272;136935;-72
2023/06/23 18:59:47;;;;;;;6.00;5.60;;;;;;;26.65;48.89;99913.79;90963;1274;23030;-72
2023/06/23 19:01:49;;;;;;;5.80;5.40;;;;;;;26.56;49.19;99911.55;91112;1272;138148;-71
2023/06/23 19:03:51;;;;;;;6.40;6.00;;;;;;;26.50;49.24;99915.59;91068;1272;22562;-71
2023/06/23 19:05:52;;;;;;;7.40;6.90;;;;;;;26.34;50.29;99918.39;91170;1269;138193;-71
2023/06/23 19:07:56;;;;;;;6.90;5.60;;;;;;;26.23;50.59;99921.50;91105;1271;22245;-71
2023/06/23 19:09:57;;;;;;;13.50;12.70;;;;;;;26.18;50.75;99928.06;91193;1269;139069;-71
2023/06/23 19:11:59;;;;;;;7.90;7.40;;;;;;;26.13;51.40;99928.96;91021;1272;22919;-70
2023/06/23 19:14:01;;;;;;;18.10;16.70;;;;;;;26.10;51.29;99931.10;91197;1269;137682;-70
2023/06/23 19:16:03;;;;;;;8.30;7.70;;;;;;;26.04;51.53;99936.07;91161;1269;137684;-72
2023/06/23 19:18:06;;;;;;;5.20;4.90;;;;;;;25.97;51.53;99936.85;91130;1269;22294;-71
2023/06/23 19:20:09;;;;;;;15.70;14.60;;;;;;;25.88;52.10;99938.41;90906;1273;137547;-70
2023/06/23 19:22:11;;;;;;;7.30;6.60;;;;;;;25.80;52.20;99942.86;91154;1275;22328;-69
2023/06/23 19:24:13;;;;;;;10.20;9.20;;;;;;;25.73;51.98;99943.24;91169;1270;137531;-72
2023/06/23 19:26:17;;;;;;;6.70;6.20;;;;;;;25.70;52.38;99949.97;91189;1272;22214;-71
2023/06/23 19:28:21;;;;;;;6.30;5.60;;;;;;;25.66;51.95;99948.73;91005;1272;137082;-70
2023/06/23 19:30:26;;;;;;;9.80;8.70;;;;;;;25.65;51.56;99949.83;91335;1273;22174;-69
2023/06/23 19:32:28;;;;;;;6.50;6.10;;;;;;;25.61;52.22;99952.50;90940;1266;137207;-71
2023/06/23 19:34:31;;;;;;;5.80;5.30;;;;;;;25.58;52.37;99959.82;91279;1270;22635;-72
2023/06/23 19:36:33;;;;;;;10.70;9.50;;;;;;;25.54;52.55;99965.51;91177;1275;137198;-70
2023/06/23 19:38:35;;;;;;;11.90;11.10;;;;;;;25.51;53.07;99970.68;91109;1273;22179;-71
2023/06/23 19:40:37;;;;;;;6.80;6.40;;;;;;;25.49;53.50;99970.72;91232;1275;137437;-71
2023/06/23 19:42:39;;;;;;;8.60;7.90;;;;;;;25.46;53.31;99974.84;91345;1257;22299;-70
2023/06/23 19:44:40;;;;;;;12.90;11.70;;;;;;;25.41;53.49;99975.08;91267;1269;137737;-70
2023/06/23 19:46:42;;;;;;;10.00;9.20;;;;;;;25.37;53.88;99977.30;91170;1272;22331;-71
2023/06/23 19:48:43;;;;;;;8.50;7.90;;;;;;;25.30;54.07;99978.14;91177;1269;137362;-70
2023/06/23 19:50:45;;;;;;;18.40;17.00;;;;;;;25.30;53.71;99986.83;91322;1269;22310;-72
2023/06/23 19:52:47;;;;;;;12.50;11.40;;;;;;;25.29;53.95;99989.79;91226;1269;138631;-70
2023/06/23 19:54:49;;;;;;;9.60;8.30;;;;;;;25.30;53.71;99984.63;91323;1269;22243;-73
2023/06/23 19:56:50;;;;;;;7.40;6.60;;;;;;;25.33;53.62;99986.34;91208;1269;137395;-71
2023/06/23 19:58:52;;;;;;;13.70;12.70;;;;;;;25.34;53.50;99993.04;91341;1269;22323;-71
2023/06/23 20:00:54;;;;;;;7.40;6.90;;;;;;;25.34;53.53;99995.77;91246;1270;137565;-71
2023/06/23 20:02:56;;;;;;;7.00;6.40;;;;;;;25.33;54.04;99997.63;91332;1269;22195;-70
2023/06/23 20:04:58;;;;;;;18.40;17.10;;;;;;;25.31;53.87;99995.20;91201;1269;137112;-69
2023/06/23 20:06:59;;;;;;;7.60;7.00;;;;;;;25.29;54.33;99991.38;91315;1269;22322;-68
2023/06/23 20:09:02;;;;;;;8.90;8.10;;;;;;;25.26;54.59;99991.46;91206;1270;138730;-70
2023/06/23 20:11:03;;;;;;;6.70;6.30;;;;;;;25.21;54.70;99994.56;91323;1270;22378;-70
2023/06/23 20:13:05;;;;;;;7.20;6.70;;;;;;;25.16;54.67;100001.45;91248;1269;139118;-71
2023/06/23 20:15:09;;;;;;;18.80;17.30;;;;;;;25.15;54.88;100005.71;91320;1269;22365;-70
2023/06/23 20:17:10;;;;;;;18.70;17.10;;;;;;;25.17;55.19;100006.94;91273;1254;138169;-70
2023/06/23 20:19:12;;;;;;;13.30;12.00;;;;;;;25.15;55.15;100007.89;91325;1272;22958;-71
2023/06/23 20:21:14;;;;;;;8.30;7.60;;;;;;;25.15;55.48;100011.66;91233;1269;138135;-69
2023/06/23 20:23:15;;;;;;;22.60;20.90;;;;;;;25.14;55.98;100013.25;91349;1269;22316;-71
2023/06/23 20:25:17;;;;;;;16.20;14.80;;;;;;;25.12;56.27;100013.44;91251;1269;138187;-69
2023/06/23 20:27:19;;;;;;;7.40;6.30;;;;;;;25.09;56.17;100017.26;91346;1270;22393;-70
2023/06/23 20:29:22;;;;;;;7.20;6.60;;;;;;;25.05;56.17;100017.45;91217;1270;138411;-71
2023/06/23 20:31:24;;;;;;;11.60;10.70;;;;;;;25.00;55.73;100012.79;91139;1272;22452;-70
2023/06/23 20:33:27;;;;;;;7.30;6.70;;;;;;;24.96;55.75;100009.79;91198;1270;138206;-71
2023/06/23 20:35:29;;;;;;;12.40;11.50;;;;;;;24.93;56.65;100008.78;91322;1273;22441;-71
2023/06/23 20:37:31;;;;;;;9.10;8.40;;;;;;;24.94;57.64;100010.20;91233;1263;137847;-73
2023/06/23 20:39:33;;;;;;;14.90;13.70;;;;;;;24.91;58.13;100013.98;91322;1272;22155;-71
2023/06/23 20:41:36;;;;;;;19.80;18.30;;;;;;;24.89;59.50;100009.23;91240;1270;138200;-70
2023/06/23 20:43:37;;;;;;;11.10;10.10;;;;;;;24.90;59.14;100007.47;91331;1270;22991;-70
2023/06/23 20:45:39;;;;;;;9.10;8.30;;;;;;;24.86;59.13;100004.73;91272;1269;138909;-70
2023/06/23 20:47:41;;;;;;;9.60;8.80;;;;;;;24.81;58.87;100009.58;91381;1276;22230;-70
2023/06/23 20:49:43;;;;;;;9.20;7.20;;;;;;;24.78;59.41;100008.70;91248;1273;137805;-73
2023/06/23 20:51:45;;;;;;;11.30;10.10;;;;;;;24.77;60.07;100011.60;91330;1276;22229;-69
2023/06/23 20:53:49;;;;;;;16.60;15.40;;;;;;;24.76;60.18;100010.14;91245;1270;138139;-71
2023/06/23 20:55:51;;;;;;;13.60;12.30;;;;;;;24.69;61.10;100005.74;91183;1276;23090;-71
2023/06/23 20:57:52;;;;;;;10.90;7.90;;;;;;;24.65;60.96;100008.91;90970;1262;139923;-70
2023/06/23 20:59:54;;;;;;;9.30;7.50;;;;;;;24.60;60.90;100009.17;91334;1270;22153;-70
2023/06/23 21:01:56;;;;;;;8.20;7.50;;;;;;;24.56;61.37;100009.17;91238;1270;136969;-69
2023/06/23 21:03:57;;;;;;;8.30;7.60;;;;;;;24.50;61.93;100010.90;91367;1275;22388;-70
2023/06/23 21:05:59;;;;;;;10.80;10.00;;;;;;;24.48;61.67;100009.89;91165;1272;138700;-71
2023/06/23 21:08:01;;;;;;;10.10;9.10;;;;;;;24.44;62.07;100010.63;91098;1259;22390;-69
2023/06/23 21:10:03;;;;;;;16.90;15.70;;;;;;;24.39;61.40;100008.56;91205;1269;137285;-71
2023/06/23 21:12:24;;;;;;;13.40;12.10;;;;;;;24.34;62.25;100007.04;91247;1272;139269;-70
2023/06/23 21:14:26;;;;;;;8.80;7.70;;;;;;;24.30;63.18;100008.05;91325;1269;22577;-71
2023/06/23 21:16:28;;;;;;;8.60;7.90;;;;;;;24.28;63.01;100012.11;91235;1270;137297;-72
2023/06/23 21:18:30;;;;;;;14.70;13.60;;;;;;;24.24;62.71;100014.42;91356;1270;22376;-71
2023/06/23 21:20:32;;;;;;;8.10;7.50;;;;;;;24.21;63.51;100013.32;91238;1269;137921;-70
2023/06/23 21:22:34;;;;;;;13.50;12.40;;;;;;;24.17;63.81;100014.06;91169;1272;23599;-71
2023/06/23 21:24:38;;;;;;;8.90;8.10;;;;;;;24.13;64.39;100010.45;91070;1273;138394;-69
2023/06/23 21:26:40;;;;;;;8.20;7.50;;;;;;;24.10;63.64;100006.34;91333;1270;22301;-69
2023/06/23 21:28:41;;;;;;;15.70;14.50;;;;;;;24.04;63.60;100006.34;90995;1273;138749;-70
2023/06/23 21:30:44;;;;;;;9.60;7.60;;;;;;;23.98;64.36;100006.17;91347;1272;22350;-69
2023/06/23 21:32:49;;;;;;;9.00;8.30;;;;;;;23.95;64.23;100003.91;91008;1272;138820;-72
2023/06/23 21:34:52;;;;;;;11.10;10.20;;;;;;;23.89;64.58;99998.36;91063;1273;22237;-70
2023/06/23 21:36:54;;;;;;;15.00;13.90;;;;;;;23.84;65.32;99995.46;91172;1272;138949;-69
2023/06/23 21:38:57;;;;;;;8.50;7.70;;;;;;;23.86;65.55;100000.28;91054;1278;23484;-73
2023/06/23 21:40:59;;;;;;;17.20;15.80;;;;;;;23.96;66.26;100002.16;91152;1270;137704;-70
2023/06/23 21:43:01;;;;;;;18.00;15.90;;;;;;;23.97;66.38;99998.13;91251;1270;22136;-71
2023/06/23 21:45:02;;;;;;;13.30;12.00;;;;;;;24.08;65.78;100008.65;91157;1269;137749;-70
2023/06/23 21:47:04;;;;;;;10.90;10.20;;;;;;;24.13;66.38;100009.90;91277;1270;23249;-70
2023/06/23 21:49:07;;;;;;;10.70;9.80;;;;;;;24.17;67.15;100014.88;91206;1274;139237;-71
2023/06/23 21:51:10;;;;;;;17.50;15.80;;;;;;;24.22;66.16;100016.35;91275;1271;22283;-71
2023/06/23 21:53:12;;;;;;;9.30;7.60;;;;;;;24.24;65.73;100013.34;91120;1265;138902;-71
2023/06/23 21:55:13;;;;;;;7.70;7.10;;;;;;;24.19;65.00;100014.37;91250;1273;22958;-70
2023/06/23 21:57:15;;;;;;;12.70;11.50;;;;;;;24.13;65.64;100018.73;91065;1275;137260;-70
2023/06/23 21:59:17;;;;;;;8.70;7.90;;;;;;;24.09;66.06;100015.05;91338;1269;22192;-71
2023/06/23 22:01:19;;;;;;;10.30;9.00;;;;;;;24.07;65.90;100013.87;91178;1272;137793;-70
2023/06/23 22:03:21;;;;;;;9.20;7.30;;;;;;;24.04;66.65;100011.13;91238;1270;22202;-69
2023/06/23 22:05:23;;;;;;;7.60;7.10;;;;;;;24.03;65.99;100011.52;91181;1269;137839;-71
2023/06/23 22:07:25;;;;;;;12.40;11.20;;;;;;;24.03;65.22;100013.21;91325;1272;22202;-69
2023/06/23 22:09:27;;;;;;;11.80;10.90;;;;;;;24.06;66.00;100019.12;91170;1272;138471;-69
2023/06/23 22:11:29;;;;;;;8.10;7.50;;;;;;;24.13;66.84;100018.17;91268;1275;22217;-70
2023/06/23 22:13:30;;;;;;;9.90;7.60;;;;;;;24.19;66.21;100016.71;91163;1257;137705;-69